Home   Weather   USA   Clarksville   Past weeks
Flag for USA

Past Weather in Clarksville, Tennessee, USA — Yesterday and Last 2 Weeks

Currently: 22 °F. Clear. (Weather station: Outlaw Field, USA). See more current weather

Past Weather in Clarksville — Graph

°F

Clarksville Temperature Yesterday

Maximum temperature yesterday: 37 °F (at 12:52 am)
Minimum temperature yesterday: 22 °F (at 9:52 pm)
Average temperature yesterday: 31 °F

High & Low Weather Summary for the Past Weeks

 TemperatureHumidityPressure
High59 °F (Jan 24, 2:52 pm)93% (Jan 18, 7:52 am)30.62 "Hg (Jan 18, 7:52 am)
Low13 °F (Jan 22, 5:52 am)31% (Jan 12, 1:52 pm)29.70 "Hg (Jan 16, 2:52 pm)
Average35 °F66%30.12 "Hg
* Reported Jan 11 12:52 am — Jan 25 10:52 pm, Clarksville. Weather by CustomWeather, © 2022

Note: Actual official high and low records may vary slightly from our data, if they occured in-between our weather recording intervals... More about our weather records

Clarksville Weather History for the Previous 24 Hours

Scroll right to see more
 ConditionsComfort  
Time TempWeatherWind HumidityBarometerVisibility
10:52 pm
Tue, Jan 25
22 °FClear.10 mph57%30.40 "Hg10 mi
9:52 pm22 °FClear.12 mph62%30.40 "Hg10 mi
8:52 pm23 °FClear.9 mph60%30.37 "Hg10 mi
7:52 pm25 °FClear.8 mph55%30.36 "Hg10 mi
6:52 pm26 °FClear.9 mph52%30.34 "Hg10 mi
5:52 pm28 °FClear.10 mph49%30.29 "Hg10 mi
4:52 pm31 °FClear.12 mph43%30.27 "Hg10 mi
3:52 pm33 °FSunny.15 mph38%30.26 "Hg10 mi
2:52 pm34 °FSunny.16 mph38%30.25 "Hg10 mi
1:52 pm35 °FSunny.13 mph40%30.23 "Hg10 mi
12:52 pm33 °FSunny.15 mph48%30.23 "Hg10 mi
11:52 am33 °FSunny.16 mph45%30.23 "Hg10 mi
10:52 am33 °FSunny.10 mph48%30.23 "Hg10 mi
9:52 am30 °FPassing clouds.14 mph59%30.23 "Hg10 mi
8:52 am28 °FPassing clouds.16 mph66%30.19 "Hg10 mi
8:21 am30 °FScattered clouds.14 mph64%30.16 "Hg10 mi
7:52 am30 °FOvercast.14 mph66%30.16 "Hg10 mi
6:52 am31 °FOvercast.14 mph69%30.13 "Hg10 mi
5:52 am32 °FOvercast.14 mph66%30.09 "Hg10 mi
4:52 am34 °FOvercast.10 mph67%30.04 "Hg10 mi
4:35 am34 °FMostly cloudy.12 mph70%30.03 "Hg10 mi
3:52 am35 °FOvercast.15 mph67%30.00 "Hg10 mi
2:52 am37 °FOvercast.8 mph67%30.00 "Hg10 mi
1:52 am37 °FOvercast.7 mph67%29.98 "Hg10 mi
12:52 am37 °FPassing clouds.7 mph70%29.95 "Hg10 mi
Weather by CustomWeather, © 2022

See weather overview